Time;durP1;ratioP1;P1;durP2;ratioP2;P2;SDS_P1;SDS_P2;PMS_P1;PMS_P2;Temp;Humidity;BMP_temperature;BMP_pressure;BME280_temperature;BME280_humidity;BME280_pressure;Samples;Min_cycle;Max_cycle;Signal;HPM_P1;HPM_P2
2022/04/26 03:37:19;;;;;;;8.37;4.97;;;4.40;99.90;;;;;;5094033;28;20235;-67
2022/04/26 03:39:45;;;;;;;9.53;6.77;;;4.30;99.90;;;;;;5110433;28;20177;-64
2022/04/26 03:42:11;;;;;;;8.17;6.07;;;4.30;99.90;;;;;;5093520;28;20555;-65
2022/04/26 03:44:37;;;;;;;7.93;5.60;;;4.10;99.90;;;;;;5093679;28;20159;-68
2022/04/26 03:47:03;;;;;;;10.87;6.10;;;4.00;99.90;;;;;;5093601;28;20571;-65
2022/04/26 03:49:29;;;;;;;7.43;5.53;;;3.90;99.90;;;;;;5093933;28;20669;-66
2022/04/26 03:51:54;;;;;;;6.73;5.27;;;3.90;99.90;;;;;;5096009;28;20583;-66
2022/04/26 03:54:24;;;;;;;6.00;5.37;;;3.90;99.90;;;;;;5094081;28;20200;-66
2022/04/26 03:56:50;;;;;;;7.00;5.63;;;3.90;99.90;;;;;;5093854;28;20169;-65
2022/04/26 03:59:16;;;;;;;7.37;5.60;;;3.90;99.90;;;;;;5093732;28;20211;-66
2022/04/26 04:01:42;;;;;;;8.03;4.70;;;3.80;99.90;;;;;;5093966;28;20175;-66
2022/04/26 04:04:08;;;;;;;8.10;6.27;;;3.70;99.90;;;;;;5094110;28;20183;-69
2022/04/26 04:06:34;;;;;;;9.97;6.33;;;3.70;99.90;;;;;;5094087;28;20160;-66
2022/04/26 04:08:59;;;;;;;8.47;6.33;;;3.70;99.90;;;;;;5093790;28;20191;-67
2022/04/26 04:11:25;;;;;;;7.87;6.23;;;3.70;99.90;;;;;;5094410;28;20183;-65
2022/04/26 04:13:51;;;;;;;9.27;6.50;;;3.80;99.90;;;;;;5094222;28;20281;-67
2022/04/26 04:16:16;;;;;;;7.93;5.97;;;3.90;99.90;;;;;;5095163;28;20190;-66
2022/04/26 04:21:26;;;;;;;6.67;5.43;;;3.80;99.90;;;;;;5106936;28;20186;-67
2022/04/26 04:23:52;;;;;;;9.23;5.83;;;3.80;99.90;;;;;;5105563;28;20167;-65
2022/04/26 04:26:18;;;;;;;6.97;5.47;;;3.80;99.90;;;;;;5109251;28;20159;-66
2022/04/26 04:28:43;;;;;;;8.40;6.23;;;3.80;99.90;;;;;;5108398;28;20162;-67
2022/04/26 04:31:12;;;;;;;7.97;6.00;;;3.90;99.90;;;;;;5114646;28;20175;-68
2022/04/26 04:33:38;;;;;;;8.00;6.07;;;3.80;99.90;;;;;;5076734;28;20208;-66
2022/04/26 04:36:04;;;;;;;9.77;7.00;;;3.80;99.90;;;;;;5075805;28;20183;-66
2022/04/26 04:38:30;;;;;;;9.33;6.37;;;3.70;99.90;;;;;;5092976;28;20204;-67
2022/04/26 04:40:56;;;;;;;8.53;6.67;;;3.80;99.90;;;;;;5093673;28;20234;-67
2022/04/26 04:43:22;;;;;;;8.20;5.93;;;3.80;99.90;;;;;;5093162;28;20294;-67
2022/04/26 04:45:47;;;;;;;8.23;6.47;;;3.70;99.90;;;;;;5092876;28;20218;-65
2022/04/26 04:48:13;;;;;;;7.97;6.07;;;3.70;99.90;;;;;;5093364;28;20171;-65
2022/04/26 04:50:39;;;;;;;8.90;7.00;;;3.80;99.90;;;;;;5097032;28;20246;-68
2022/04/26 04:53:05;;;;;;;7.93;6.27;;;3.70;99.90;;;;;;5099710;28;20227;-65
2022/04/26 04:55:30;;;;;;;7.43;5.67;;;3.70;99.90;;;;;;5083692;28;20178;-65
2022/04/26 04:57:56;;;;;;;9.90;6.40;;;3.60;99.90;;;;;;5100754;28;20593;-65
2022/04/26 05:00:22;;;;;;;12.13;7.67;;;3.80;99.90;;;;;;5098817;28;20185;-65
2022/04/26 05:02:47;;;;;;;10.77;7.07;;;3.90;99.90;;;;;;5097782;28;20159;-64
2022/04/26 05:05:13;;;;;;;9.73;6.10;;;3.90;99.90;;;;;;5097670;28;20631;-66
2022/04/26 05:07:39;;;;;;;9.90;7.13;;;4.00;99.90;;;;;;5078917;28;20183;-67
2022/04/26 05:10:06;;;;;;;10.13;7.30;;;4.00;99.90;;;;;;5096675;28;20166;-64
2022/04/26 05:12:33;;;;;;;12.20;7.60;;;4.00;99.90;;;;;;5096296;28;20214;-64
2022/04/26 05:14:59;;;;;;;9.97;7.23;;;4.10;99.90;;;;;;5096195;28;20257;-66
2022/04/26 05:17:26;;;;;;;8.60;6.40;;;4.10;99.90;;;;;;5096139;28;20531;-66
2022/04/26 05:19:52;;;;;;;8.97;7.63;;;4.20;99.90;;;;;;5078407;28;20274;-65
2022/04/26 05:22:18;;;;;;;8.70;6.20;;;4.20;99.90;;;;;;5095848;28;20195;-66
2022/04/26 05:24:57;;;;;;;8.37;6.10;;;4.20;99.90;;;;;;5096211;28;20217;-66
2022/04/26 05:27:28;;;;;;;8.60;6.40;;;4.10;99.90;;;;;;5096679;28;20462;-66
2022/04/26 05:29:55;;;;;;;8.70;6.60;;;4.20;99.90;;;;;;5078310;28;20205;-66
2022/04/26 05:32:26;;;;;;;8.00;5.90;;;4.20;99.90;;;;;;5096057;28;20202;-64
2022/04/26 05:34:56;;;;;;;8.67;6.53;;;4.30;99.90;;;;;;5096552;28;20159;-66
2022/04/26 05:37:22;;;;;;;8.87;6.60;;;4.50;99.90;;;;;;5096639;28;20186;-65
2022/04/26 05:39:48;;;;;;;7.80;6.37;;;4.60;99.90;;;;;;5096704;28;20159;-64
2022/04/26 05:42:13;;;;;;;10.40;7.37;;;4.50;99.90;;;;;;5096035;28;20224;-67
2022/04/26 05:44:39;;;;;;;10.53;7.80;;;4.80;99.90;;;;;;5095905;28;20500;-66
2022/04/26 05:47:07;;;;;;;11.17;8.23;;;4.90;99.90;;;;;;5096529;28;20147;-65
2022/04/26 05:49:32;;;;;;;10.43;7.10;;;4.90;99.90;;;;;;5095898;28;20224;-66
2022/04/26 05:51:58;;;;;;;8.87;6.47;;;5.00;99.90;;;;;;5095971;28;20155;-67
2022/04/26 05:54:23;;;;;;;9.37;6.90;;;5.00;99.90;;;;;;5095360;28;20196;-65
2022/04/26 05:56:52;;;;;;;9.30;6.43;;;5.00;99.90;;;;;;5095957;28;20504;-68
2022/04/26 05:59:18;;;;;;;11.77;7.07;;;5.10;99.90;;;;;;5097366;28;20558;-66
2022/04/26 06:01:44;;;;;;;8.83;7.00;;;5.20;99.90;;;;;;5098706;28;20172;-68
2022/04/26 06:04:09;;;;;;;9.43;6.70;;;5.30;99.90;;;;;;5098168;28;20160;-64
2022/04/26 06:06:35;;;;;;;9.83;6.83;;;5.20;99.90;;;;;;5095472;28;20273;-65
2022/04/26 06:09:01;;;;;;;8.93;6.43;;;5.30;99.90;;;;;;5110906;28;20187;-65
2022/04/26 06:11:27;;;;;;;10.57;6.97;;;5.50;99.90;;;;;;5095746;28;20247;-65
2022/04/26 06:13:52;;;;;;;9.07;7.00;;;5.50;99.90;;;;;;5094978;28;20400;-64
2022/04/26 06:16:19;;;;;;;9.67;6.13;;;5.70;99.90;;;;;;5095472;28;20159;-65
2022/04/26 06:18:45;;;;;;;11.07;7.30;;;5.90;99.90;;;;;;5094813;28;20500;-65
2022/04/26 06:21:10;;;;;;;11.40;6.60;;;6.10;99.90;;;;;;5096749;28;20324;-66
2022/04/26 06:23:36;;;;;;;11.77;7.37;;;6.30;99.90;;;;;;5098557;28;20166;-65
2022/04/26 06:26:02;;;;;;;8.90;6.30;;;6.30;99.90;;;;;;5097801;28;20292;-67
2022/04/26 06:28:27;;;;;;;14.03;7.87;;;6.20;99.90;;;;;;5099219;28;20221;-67
2022/04/26 06:30:55;;;;;;;9.77;5.93;;;6.30;99.90;;;;;;5100880;28;20172;-66
2022/04/26 06:33:20;;;;;;;8.33;6.67;;;6.40;99.90;;;;;;5097095;28;20191;-66
2022/04/26 06:35:46;;;;;;;7.13;5.20;;;6.40;99.90;;;;;;5095001;28;20219;-66
2022/04/26 06:38:12;;;;;;;6.77;4.83;;;6.50;99.90;;;;;;5095871;28;20215;-65
2022/04/26 06:40:37;;;;;;;6.67;5.20;;;6.50;99.90;;;;;;5095445;28;20173;-65
2022/04/26 06:43:03;;;;;;;9.97;6.57;;;6.60;99.90;;;;;;5098487;28;20595;-65
2022/04/26 06:45:29;;;;;;;10.17;7.17;;;6.80;99.90;;;;;;5106383;28;20252;-65
2022/04/26 06:47:54;;;;;;;7.63;6.40;;;6.90;99.90;;;;;;5107061;28;20299;-66
2022/04/26 06:50:21;;;;;;;8.40;5.20;;;7.10;99.90;;;;;;5105338;28;20167;-70
2022/04/26 06:52:47;;;;;;;8.17;5.90;;;7.10;99.90;;;;;;5083554;28;20214;-65
2022/04/26 06:55:13;;;;;;;13.77;5.90;;;7.20;99.90;;;;;;5099922;28;20170;-64
2022/04/26 06:57:38;;;;;;;7.57;5.30;;;7.30;99.90;;;;;;5078871;28;20264;-66
2022/04/26 07:00:06;;;;;;;8.23;5.87;;;7.40;99.90;;;;;;5096115;28;20167;-65
2022/04/26 07:02:32;;;;;;;8.77;5.80;;;7.40;99.90;;;;;;5094380;28;20512;-65
2022/04/26 07:04:57;;;;;;;8.90;6.50;;;7.80;99.90;;;;;;5094337;28;20172;-66
2022/04/26 07:07:23;;;;;;;8.13;5.80;;;7.80;99.90;;;;;;5094583;28;20159;-67
2022/04/26 07:09:49;;;;;;;8.80;5.73;;;7.80;99.90;;;;;;5095176;28;20187;-65
2022/04/26 07:12:14;;;;;;;9.50;5.43;;;7.80;99.90;;;;;;5095032;28;20634;-65
2022/04/26 07:14:40;;;;;;;7.17;5.73;;;7.90;99.90;;;;;;5094745;28;20174;-65
2022/04/26 07:17:06;;;;;;;7.50;5.60;;;8.10;99.90;;;;;;5076797;28;20173;-65
2022/04/26 07:19:35;;;;;;;9.93;5.97;;;8.20;99.90;;;;;;5094457;28;20557;-65
2022/04/26 07:22:03;;;;;;;9.23;5.57;;;8.60;99.90;;;;;;5077033;28;20187;-67
2022/04/26 07:24:32;;;;;;;11.23;6.00;;;8.80;99.90;;;;;;5096720;28;20193;-66
2022/04/26 07:26:58;;;;;;;9.13;6.20;;;9.10;99.90;;;;;;5102093;28;20598;-66
2022/04/26 07:29:23;;;;;;;8.10;6.47;;;9.10;99.90;;;;;;5098034;28;20155;-65
2022/04/26 07:31:49;;;;;;;9.00;6.13;;;8.90;99.90;;;;;;5094915;28;20265;-64
2022/04/26 07:34:20;;;;;;;11.67;6.63;;;9.30;99.90;;;;;;5094536;28;20202;-65
2022/04/26 07:36:48;;;;;;;9.80;6.87;;;9.50;99.90;;;;;;5076596;28;20189;-65
2022/04/26 07:39:16;;;;;;;8.20;6.03;;;9.50;99.90;;;;;;5094535;28;20158;-64
2022/04/26 07:41:41;;;;;;;10.00;6.57;;;9.50;99.90;;;;;;5095081;28;20179;-65
2022/04/26 07:44:07;;;;;;;9.70;6.93;;;9.80;99.90;;;;;;5081482;28;20247;-66
2022/04/26 07:46:33;;;;;;;7.83;6.73;;;9.80;99.90;;;;;;5084017;28;20226;-66
2022/04/26 07:48:58;;;;;;;10.30;6.80;;;9.80;99.90;;;;;;5102884;28;20186;-65
2022/04/26 07:51:24;;;;;;;10.80;7.43;;;10.10;99.90;;;;;;5100879;28;20158;-65
2022/04/26 07:53:50;;;;;;;12.57;8.43;;;10.30;99.90;;;;;;5100268;28;20201;-66
2022/04/26 07:56:15;;;;;;;12.40;8.07;;;10.10;99.90;;;;;;5099877;28;20300;-67
2022/04/26 07:58:41;;;;;;;10.67;7.70;;;10.40;99.90;;;;;;5100947;28;20155;-65
2022/04/26 08:01:06;;;;;;;11.23;8.00;;;10.70;99.90;;;;;;5098548;28;20162;-66
2022/04/26 08:03:33;;;;;;;12.63;8.27;;;10.90;99.90;;;;;;5098601;28;20637;-66
2022/04/26 08:05:59;;;;;;;13.60;8.43;;;10.90;99.90;;;;;;5100659;28;20151;-66
2022/04/26 08:08:25;;;;;;;14.37;9.27;;;11.20;99.90;;;;;;5102005;28;20253;-67
2022/04/26 08:10:50;;;;;;;19.60;10.90;;;11.50;99.90;;;;;;5101388;28;20166;-67
2022/04/26 08:13:16;;;;;;;13.20;9.77;;;11.70;99.90;;;;;;5102217;28;20278;-66
2022/04/26 08:15:42;;;;;;;14.37;9.37;;;11.80;99.90;;;;;;5094866;28;20172;-66
2022/04/26 08:18:09;;;;;;;12.97;9.50;;;12.10;99.90;;;;;;5075757;28;20590;-65
2022/04/26 08:20:35;;;;;;;12.93;9.90;;;12.10;99.90;;;;;;5094258;28;20236;-65
2022/04/26 08:23:02;;;;;;;13.43;9.50;;;12.20;99.90;;;;;;5093751;28;20163;-65
2022/04/26 08:28:12;;;;;;;17.00;9.70;;;12.30;99.90;;;;;;5093341;28;20248;-66
2022/04/26 08:30:38;;;;;;;14.53;9.60;;;12.50;99.90;;;;;;5097594;28;20167;-65
2022/04/26 08:33:04;;;;;;;14.97;9.23;;;12.50;99.90;;;;;;5099122;28;20212;-64
2022/04/26 08:35:29;;;;;;;13.93;8.80;;;12.70;99.90;;;;;;5099133;28;20253;-66
2022/04/26 08:37:55;;;;;;;15.10;9.07;;;12.90;99.90;;;;;;5100522;28;20187;-69
2022/04/26 08:40:20;;;;;;;12.23;8.93;;;13.10;99.90;;;;;;5082789;28;20183;-66
2022/04/26 08:42:48;;;;;;;12.13;8.70;;;13.20;99.90;;;;;;5101856;28;20193;-65
2022/04/26 08:45:16;;;;;;;11.37;8.17;;;13.30;99.90;;;;;;5103479;28;20218;-66
2022/04/26 08:53:15;;;;;;;14.33;8.47;;;13.10;99.90;;;;;;5101164;28;20277;-66
2022/04/26 08:55:43;;;;;;;10.60;7.40;;;13.50;99.90;;;;;;5099753;28;20621;-66
2022/04/26 08:58:11;;;;;;;11.73;8.53;;;13.60;99.90;;;;;;5098646;28;20263;-64
2022/04/26 09:00:42;;;;;;;12.23;8.20;;;13.80;99.90;;;;;;5098324;28;20247;-66
2022/04/26 09:03:08;;;;;;;10.20;7.20;;;13.90;99.90;;;;;;5098326;28;20181;-67
2022/04/26 09:05:35;;;;;;;11.80;7.53;;;14.30;99.90;;;;;;5098965;28;20170;-68
2022/04/26 09:08:18;;;;;;;11.27;8.00;;;14.20;99.90;;;;;;5101783;28;20234;-66
2022/04/26 09:10:47;;;;;;;11.97;7.13;;;14.20;99.90;;;;;;5101535;28;20159;-66
2022/04/26 09:13:15;;;;;;;8.47;6.60;;;14.20;99.90;;;;;;5100053;28;20202;-66
2022/04/26 09:15:54;;;;;;;8.87;6.27;;;14.50;99.90;;;;;;5083944;28;20227;-65
2022/04/26 09:18:20;;;;;;;8.10;6.37;;;14.80;99.90;;;;;;5097440;28;20170;-67
2022/04/26 09:20:52;;;;;;;12.90;6.40;;;14.50;99.90;;;;;;5078562;28;20503;-65
2022/04/26 09:23:22;;;;;;;11.70;6.77;;;14.70;99.90;;;;;;5096032;28;20167;-66
2022/04/26 09:25:51;;;;;;;7.20;5.60;;;14.90;99.90;;;;;;5095838;28;20487;-65
2022/04/26 09:28:27;;;;;;;7.97;5.77;;;15.10;99.90;;;;;;5096446;28;20155;-66
2022/04/26 09:30:52;;;;;;;8.23;6.33;;;15.10;99.90;;;;;;5095634;28;20245;-66
2022/04/26 09:33:36;;;;;;;7.17;5.90;;;15.10;99.90;;;;;;5096085;28;20632;-65
2022/04/26 09:36:07;;;;;;;8.07;5.70;;;14.90;99.90;;;;;;5077878;28;20606;-65
2022/04/26 09:38:33;;;;;;;6.83;4.80;;;14.50;99.90;;;;;;5095813;28;20174;-66
2022/04/26 09:41:01;;;;;;;5.70;4.63;;;14.40;99.90;;;;;;5094827;28;20557;-66
2022/04/26 09:43:28;;;;;;;6.33;5.13;;;14.00;99.90;;;;;;5095722;28;20157;-66
2022/04/26 09:45:56;;;;;;;5.50;4.63;;;14.40;99.90;;;;;;5095298;28;20696;-66
2022/04/26 09:48:36;;;;;;;6.73;4.20;;;15.10;99.90;;;;;;5095604;28;20262;-67
2022/04/26 09:51:03;;;;;;;6.80;4.97;;;14.70;99.90;;;;;;5096036;28;20162;-65
2022/04/26 09:53:32;;;;;;;4.90;4.00;;;14.40;99.90;;;;;;5095709;28;20548;-66
2022/04/26 09:55:59;;;;;;;5.27;4.00;;;15.10;99.90;;;;;;5096095;28;20166;-66
2022/04/26 09:58:27;;;;;;;6.20;3.87;;;15.50;99.90;;;;;;5095461;28;20169;-66
2022/04/26 10:00:54;;;;;;;5.50;4.10;;;15.90;99.90;;;;;;5095571;28;20633;-66
2022/04/26 10:03:39;;;;;;;8.00;3.80;;;16.50;99.90;;;;;;5095495;28;20190;-66
2022/04/26 10:06:07;;;;;;;4.90;3.58;;;16.40;99.90;;;;;;5095785;28;20163;-66
2022/04/26 10:08:35;;;;;;;5.93;3.65;;;16.90;99.90;;;;;;5077435;28;20202;-66
2022/04/26 10:11:04;;;;;;;6.22;3.45;;;17.00;99.90;;;;;;5077751;28;20247;-65
2022/04/26 10:13:42;;;;;;;4.00;3.28;;;17.00;99.90;;;;;;5095401;28;20328;-67
2022/04/26 10:16:10;;;;;;;3.70;2.85;;;17.00;99.80;;;;;;5077075;28;20617;-65
2022/04/26 10:18:45;;;;;;;4.18;2.90;;;16.70;98.70;;;;;;5095693;28;20195;-65
2022/04/26 10:21:32;;;;;;;3.35;2.92;;;17.00;96.30;;;;;;5095649;28;20200;-65
2022/04/26 10:24:02;;;;;;;5.20;3.13;;;16.90;96.90;;;;;;5082681;28;20289;-66
2022/04/26 10:26:29;;;;;;;2.97;2.60;;;16.90;96.30;;;;;;5097144;28;20477;-69
2022/04/26 10:29:02;;;;;;;3.63;3.00;;;16.70;97.20;;;;;;5094681;28;20166;-69
2022/04/26 10:31:38;;;;;;;3.20;2.90;;;17.00;95.80;;;;;;5094748;28;20207;-66
2022/04/26 10:34:23;;;;;;;5.30;3.20;;;17.20;94.50;;;;;;5094904;28;20251;-64
2022/04/26 10:36:50;;;;;;;3.45;2.85;;;17.00;97.20;;;;;;5095223;28;20213;-66
2022/04/26 10:39:34;;;;;;;3.38;3.08;;;17.10;95.90;;;;;;5097694;28;20250;-66
2022/04/26 10:42:02;;;;;;;4.93;3.30;;;16.50;97.40;;;;;;5094964;28;20629;-65
2022/04/26 10:44:46;;;;;;;3.70;3.10;;;16.50;99.70;;;;;;5095110;28;20174;-66
2022/04/26 10:47:12;;;;;;;5.15;3.33;;;17.10;97.80;;;;;;5094626;28;20265;-68
2022/04/26 10:49:42;;;;;;;4.15;3.20;;;17.00;97.70;;;;;;5094977;28;20174;-66
2022/04/26 10:52:13;;;;;;;3.58;3.00;;;17.00;94.50;;;;;;5103403;22;20253;-65
2022/04/26 10:54:48;;;;;;;4.25;3.00;;;17.40;94.90;;;;;;5073994;28;20282;-65
2022/04/26 10:57:15;;;;;;;4.25;3.00;;;16.90;95.00;;;;;;5074083;28;20304;-66
2022/04/26 11:00:02;;;;;;;3.75;3.20;;;17.50;94.60;;;;;;5074312;28;20480;-65
2022/04/26 11:02:33;;;;;;;4.20;3.20;;;17.80;93.80;;;;;;5074583;28;20614;-64
2022/04/26 11:05:04;;;;;;;4.10;3.05;;;18.30;89.40;;;;;;5075068;28;20156;-66
2022/04/26 11:07:31;;;;;;;3.28;2.97;;;17.80;91.80;;;;;;5080877;28;20160;-65
2022/04/26 11:09:58;;;;;;;4.05;3.03;;;17.80;89.60;;;;;;5080149;28;20219;-66
2022/04/26 11:12:25;;;;;;;3.47;3.10;;;17.70;88.30;;;;;;5078280;28;20191;-65
2022/04/26 11:14:53;;;;;;;4.22;3.30;;;17.20;91.50;;;;;;5077028;28;20159;-65
2022/04/26 11:17:22;;;;;;;3.22;2.40;;;17.60;90.10;;;;;;5075599;28;20191;-68
2022/04/26 11:20:16;;;;;;;2.65;2.45;;;17.20;90.20;;;;;;5074457;28;20156;-64
2022/04/26 11:22:50;;;;;;;4.18;2.83;;;16.80;92.30;;;;;;5070729;28;20245;-67
2022/04/26 11:28:11;;;;;;;3.92;2.67;;;16.70;97.00;;;;;;5073345;28;20653;-65
2022/04/26 11:30:41;;;;;;;4.25;3.17;;;16.90;95.00;;;;;;5073204;28;20167;-65
2022/04/26 11:33:24;;;;;;;3.75;3.20;;;16.60;95.80;;;;;;5055316;28;20231;-64
2022/04/26 11:35:57;;;;;;;3.33;2.92;;;16.60;96.60;;;;;;5073323;28;20164;-64
2022/04/26 11:38:24;;;;;;;4.35;3.38;;;17.10;95.00;;;;;;5073527;28;20172;-65
2022/04/26 11:40:58;;;;;;;3.40;2.92;;;17.50;92.70;;;;;;5055659;28;20175;-64
2022/04/26 11:43:31;;;;;;;3.75;2.88;;;17.60;92.20;;;;;;5074114;28;20170;-64
2022/04/26 11:45:58;;;;;;;4.20;3.10;;;17.70;92.30;;;;;;5073471;28;20171;-64
2022/04/26 11:48:34;;;;;;;3.47;2.88;;;18.20;91.20;;;;;;5055787;28;20177;-65
2022/04/26 11:51:01;;;;;;;3.92;3.08;;;17.50;91.20;;;;;;5073702;28;20265;-64
2022/04/26 11:53:29;;;;;;;3.95;3.38;;;17.60;92.40;;;;;;5073726;28;20199;-65
2022/04/26 11:56:01;;;;;;;4.55;3.30;;;18.00;92.10;;;;;;5073517;28;20172;-66
2022/04/26 11:58:27;;;;;;;4.28;3.30;;;17.80;90.40;;;;;;5073603;28;20183;-64
2022/04/26 12:01:03;;;;;;;4.00;3.17;;;17.60;92.10;;;;;;5073186;28;20521;-66
2022/04/26 12:03:40;;;;;;;4.20;3.22;;;18.20;91.40;;;;;;5074174;28;20190;-64
2022/04/26 12:06:09;;;;;;;5.15;2.72;;;18.40;86.90;;;;;;5077418;28;20209;-67
2022/04/26 12:08:39;;;;;;;4.28;2.80;;;18.50;76.50;;;;;;5077674;28;20160;-65
2022/04/26 12:11:24;;;;;;;6.78;2.75;;;18.60;79.10;;;;;;5077589;28;20194;-66
2022/04/26 12:14:19;;;;;;;3.10;2.80;;;18.90;78.80;;;;;;5059214;28;20646;-66
2022/04/26 12:16:48;;;;;;;4.15;3.15;;;18.40;78.90;;;;;;5074947;28;20252;-64
2022/04/26 12:19:15;;;;;;;4.10;3.40;;;18.20;83.20;;;;;;5077041;28;20284;-65
2022/04/26 12:21:46;;;;;;;4.97;3.75;;;18.30;85.40;;;;;;5077323;28;20171;-64
2022/04/26 12:24:17;;;;;;;3.63;3.22;;;18.00;84.90;;;;;;5076811;28;20159;-65
2022/04/26 12:26:59;;;;;;;4.25;3.50;;;17.60;87.80;;;;;;5077645;28;20160;-67
2022/04/26 12:29:28;;;;;;;4.35;3.25;;;17.10;91.00;;;;;;5076934;28;20160;-65
2022/04/26 12:31:54;;;;;;;6.82;3.33;;;17.30;92.60;;;;;;5077244;28;20199;-65
2022/04/26 12:34:26;;;;;;;4.50;3.47;;;16.80;91.90;;;;;;5076843;28;20238;-66
2022/04/26 12:36:59;;;;;;;3.65;3.08;;;17.00;93.50;;;;;;5076922;28;20164;-65
2022/04/26 12:39:43;;;;;;;4.57;3.33;;;17.50;91.40;;;;;;5076339;28;20179;-65
2022/04/26 12:42:17;;;;;;;5.63;3.25;;;17.90;85.20;;;;;;5076266;28;20155;-65
2022/04/26 12:44:51;;;;;;;5.43;3.22;;;18.00;86.00;;;;;;5076680;28;20179;-65
2022/04/26 12:50:33;;;;;;;5.03;3.03;;;18.00;81.30;;;;;;5076250;28;20249;-66
2022/04/26 12:53:01;;;;;;;3.30;2.80;;;18.20;80.10;;;;;;5075935;28;20317;-64
2022/04/26 12:55:36;;;;;;;5.22;2.88;;;17.90;77.50;;;;;;5076340;28;20260;-74
2022/04/26 12:58:09;;;;;;;58.75;29.60;;;18.80;77.40;;;;;;5076661;28;20176;-72
2022/04/26 13:00:41;;;;;;;3.15;2.85;;;18.80;74.20;;;;;;5076930;28;20190;-65
2022/04/26 13:03:08;;;;;;;3.75;2.67;;;18.20;74.80;;;;;;5076835;28;20164;-65
2022/04/26 13:05:44;;;;;;;5.20;2.80;;;18.10;74.30;;;;;;5078583;28;20168;-65
2022/04/26 13:08:10;;;;;;;2.65;2.28;;;17.40;77.80;;;;;;5076907;28;20159;-66
2022/04/26 13:10:36;;;;;;;3.47;2.80;;;17.20;85.20;;;;;;5077501;28;20176;-67
2022/04/26 13:13:02;;;;;;;13.70;9.27;;;17.10;87.30;;;;;;5077453;28;20203;-65
2022/04/26 13:15:28;;;;;;;5.68;4.25;;;17.20;90.90;;;;;;5076522;28;20191;-65
2022/04/26 13:17:53;;;;;;;2.97;2.67;;;17.40;88.60;;;;;;5077536;28;20246;-65
2022/04/26 13:20:20;;;;;;;3.42;2.60;;;17.40;86.60;;;;;;5089930;28;20164;-66
2022/04/26 13:22:46;;;;;;;2.83;2.25;;;17.20;85.80;;;;;;5087084;28;20264;-65
2022/04/26 13:25:11;;;;;;;2.97;2.20;;;17.20;86.20;;;;;;5076254;28;20471;-66
2022/04/26 13:27:38;;;;;;;3.58;2.60;;;17.30;85.30;;;;;;5079141;28;20159;-67
2022/04/26 13:30:06;;;;;;;2.90;2.60;;;17.40;87.00;;;;;;5080023;28;20156;-64
2022/04/26 13:32:32;;;;;;;2.53;2.22;;;17.00;86.50;;;;;;5062847;28;20160;-66
2022/04/26 13:34:58;;;;;;;3.72;2.72;;;16.80;86.00;;;;;;5078763;28;20217;-66
2022/04/26 13:37:24;;;;;;;4.18;2.40;;;16.70;87.80;;;;;;5079146;28;20221;-71
2022/04/26 13:39:50;;;;;;;3.75;2.20;;;16.80;88.50;;;;;;5079390;28;20160;-64
2022/04/26 13:42:17;;;;;;;2.55;2.30;;;16.90;88.50;;;;;;5077660;28;20166;-66
2022/04/26 13:44:43;;;;;;;4.45;2.47;;;16.90;90.30;;;;;;5075824;28;20198;-66
2022/04/26 13:47:09;;;;;;;3.22;2.83;;;16.90;90.00;;;;;;5075966;28;20615;-65
2022/04/26 13:49:35;;;;;;;2.67;2.35;;;17.00;89.20;;;;;;5076840;28;20647;-65
2022/04/26 13:52:04;;;;;;;2.40;2.10;;;17.00;83.50;;;;;;5076075;28;20322;-65
2022/04/26 13:54:29;;;;;;;2.88;2.25;;;16.90;83.30;;;;;;5076442;28;20199;-64
2022/04/26 13:56:56;;;;;;;3.17;2.15;;;16.70;81.60;;;;;;5075320;28;20496;-64
2022/04/26 13:59:23;;;;;;;2.75;1.90;;;16.80;82.90;;;;;;5075120;28;20195;-65
2022/04/26 14:01:53;;;;;;;2.40;2.10;;;16.50;80.80;;;;;;5075296;28;20162;-66
2022/04/26 14:04:21;;;;;;;2.65;2.40;;;16.40;78.70;;;;;;5075503;28;20160;-66
2022/04/26 14:06:47;;;;;;;4.93;3.00;;;16.50;80.70;;;;;;5076140;28;20155;-65
2022/04/26 14:09:13;;;;;;;4.40;3.80;;;16.30;81.20;;;;;;5076058;28;20178;-65
2022/04/26 14:11:38;;;;;;;2.70;2.50;;;16.30;83.70;;;;;;5075609;28;20164;-65
2022/04/26 14:22:35;;;;;;;2.80;2.50;;;16.10;92.80;;;;;;5086121;28;20236;-65
2022/04/26 14:25:11;;;;;;;3.10;2.30;;;16.10;93.90;;;;;;5066674;28;20582;-67
2022/04/26 14:27:39;;;;;;;2.60;2.10;;;16.10;95.40;;;;;;5083703;28;20532;-66
2022/04/26 14:30:07;;;;;;;3.15;2.50;;;16.20;96.20;;;;;;5086214;28;20176;-65
2022/04/26 14:32:34;;;;;;;3.10;2.72;;;16.10;94.60;;;;;;5065442;28;20179;-65
2022/04/26 14:34:59;;;;;;;2.87;2.33;;;16.20;95.50;;;;;;5077808;28;20216;-67
2022/04/26 14:37:25;;;;;;;3.87;2.43;;;16.20;95.90;;;;;;5076383;28;20574;-65
2022/04/26 14:39:51;;;;;;;3.53;2.67;;;16.00;96.80;;;;;;5080692;28;20221;-67
2022/04/26 14:42:17;;;;;;;3.10;2.73;;;16.00;95.70;;;;;;5081458;28;20509;-64
2022/04/26 14:44:43;;;;;;;2.90;2.60;;;16.00;95.80;;;;;;5080257;28;20167;-68
2022/04/26 14:47:09;;;;;;;3.30;2.70;;;15.90;95.70;;;;;;5079421;28;20178;-67
2022/04/26 14:49:35;;;;;;;2.80;2.50;;;15.90;96.30;;;;;;5059993;28;20186;-67
2022/04/26 14:52:01;;;;;;;3.72;2.83;;;15.80;96.00;;;;;;5077526;28;20270;-65
2022/04/26 14:54:28;;;;;;;3.50;2.80;;;15.70;97.50;;;;;;5074648;28;20199;-67
2022/04/26 14:56:54;;;;;;;3.67;2.67;;;15.60;99.20;;;;;;5074282;28;20175;-64
2022/04/26 14:59:22;;;;;;;2.93;2.50;;;15.60;99.90;;;;;;5074815;28;20164;-66
2022/04/26 15:01:49;;;;;;;3.17;2.73;;;15.60;99.90;;;;;;5074532;28;20155;-65
2022/04/26 15:04:23;;;;;;;4.93;3.30;;;15.50;99.90;;;;;;5074630;28;20171;-67
2022/04/26 15:06:49;;;;;;;4.40;2.60;;;15.60;99.90;;;;;;5074140;28;20164;-65
2022/04/26 15:17:28;;;;;;;4.03;3.17;;;15.30;99.90;;;;;;5074256;28;20510;-65
2022/04/26 15:19:55;;;;;;;3.00;2.70;;;15.50;99.90;;;;;;5074382;28;20160;-65
2022/04/26 15:22:22;;;;;;;3.37;2.90;;;15.40;99.90;;;;;;5073811;28;20171;-67
2022/04/26 15:24:50;;;;;;;4.03;2.80;;;15.40;99.90;;;;;;5073654;28;20159;-66
2022/04/26 15:27:16;;;;;;;7.27;2.77;;;15.40;99.90;;;;;;5073996;28;20178;-65
2022/04/26 15:29:42;;;;;;;3.13;2.57;;;15.30;99.90;;;;;;5073754;28;20198;-66
2022/04/26 15:32:10;;;;;;;4.53;2.73;;;15.30;99.90;;;;;;5073654;28;20167;-66
2022/04/26 15:34:36;;;;;;;4.17;3.03;;;15.20;99.90;;;;;;5073997;28;20249;-66
2022/04/26 15:37:02;;;;;;;3.60;2.97;;;15.20;99.90;;;;;;5073923;28;20171;-66
2022/04/26 15:39:28;;;;;;;3.37;3.07;;;15.20;99.90;;;;;;5073117;28;20163;-66
2022/04/26 15:41:54;;;;;;;4.07;3.10;;;15.30;99.90;;;;;;5073171;28;20191;-64
2022/04/26 15:44:20;;;;;;;3.10;2.80;;;15.30;99.90;;;;;;5073741;28;20160;-65
2022/04/26 15:46:48;;;;;;;11.93;3.80;;;15.30;99.90;;;;;;5073566;28;20168;-65
2022/04/26 15:49:14;;;;;;;4.07;2.77;;;15.30;99.90;;;;;;5073577;28;20160;-65
2022/04/26 15:51:41;;;;;;;4.37;2.73;;;15.30;99.90;;;;;;5073771;28;20371;-65
2022/04/26 15:54:07;;;;;;;2.77;2.57;;;15.30;99.90;;;;;;5072894;28;20674;-65
2022/04/26 15:56:33;;;;;;;4.57;3.40;;;15.30;99.90;;;;;;5073492;28;20166;-65
2022/04/26 15:58:59;;;;;;;4.23;2.83;;;15.20;99.90;;;;;;5074022;28;20262;-66
2022/04/26 16:01:26;;;;;;;3.20;2.73;;;15.20;99.90;;;;;;5073582;28;20178;-65
2022/04/26 16:03:52;;;;;;;3.87;3.23;;;15.20;99.90;;;;;;5073503;28;20205;-67
2022/04/26 16:06:18;;;;;;;4.87;2.70;;;15.20;99.90;;;;;;5073881;28;20571;-65
2022/04/26 16:08:44;;;;;;;6.93;3.33;;;15.20;99.90;;;;;;5074925;28;20602;-66
2022/04/26 16:22:06;;;;;;;2.73;2.30;;;15.40;99.60;;;;;;5072936;28;20174;-68
2022/04/26 16:24:38;;;;;;;2.77;2.23;;;15.30;99.40;;;;;;5068178;28;20171;-67
2022/04/26 16:27:08;;;;;;;4.90;2.30;;;15.30;99.90;;;;;;5053680;28;20172;-67
2022/04/26 16:29:34;;;;;;;2.80;2.43;;;15.30;99.90;;;;;;5053749;28;20219;-67
2022/04/26 16:31:59;;;;;;;2.50;2.30;;;15.30;99.90;;;;;;5052716;28;20563;-67
2022/04/26 16:34:25;;;;;;;3.27;2.50;;;15.30;99.90;;;;;;5053253;28;20668;-67
2022/04/26 16:36:51;;;;;;;2.93;2.37;;;15.20;99.90;;;;;;5053473;28;20584;-68
2022/04/26 16:39:17;;;;;;;4.53;2.80;;;15.30;99.90;;;;;;5053161;28;20259;-66
2022/04/26 16:41:43;;;;;;;3.17;2.33;;;15.30;99.90;;;;;;5051678;28;20190;-66
2022/04/26 16:44:08;;;;;;;5.30;4.13;;;15.20;99.90;;;;;;5052762;28;20156;-65
2022/04/26 16:46:35;;;;;;;5.27;3.70;;;15.30;99.90;;;;;;5052208;28;20191;-66
2022/04/26 16:49:03;;;;;;;2.43;2.23;;;15.30;99.90;;;;;;5056762;28;20168;-68
2022/04/26 16:51:30;;;;;;;4.70;3.50;;;15.30;99.90;;;;;;5069954;28;20223;-66
2022/04/26 16:53:59;;;;;;;4.00;3.30;;;15.30;99.90;;;;;;5064751;28;20199;-68
2022/04/26 16:56:25;;;;;;;6.10;3.43;;;15.20;99.90;;;;;;5061463;28;20604;-68
2022/04/26 16:58:50;;;;;;;4.83;3.70;;;15.30;99.90;;;;;;5067589;28;20168;-69
2022/04/26 17:01:16;;;;;;;6.53;4.10;;;15.20;99.90;;;;;;5068853;28;20247;-67
2022/04/26 17:03:42;;;;;;;7.53;4.53;;;15.20;99.90;;;;;;5067925;28;20160;-68
2022/04/26 17:06:07;;;;;;;5.47;3.77;;;15.20;99.90;;;;;;5069254;28;20599;-66
2022/04/26 17:08:33;;;;;;;5.63;4.07;;;15.20;99.90;;;;;;5078653;28;20162;-66
2022/04/26 17:13:45;;;;;;;4.40;3.07;;;15.20;99.90;;;;;;5076172;28;20237;-67
2022/04/26 17:16:11;;;;;;;3.77;3.10;;;15.20;99.90;;;;;;5076244;28;20178;-67